Time;durP1;ratioP1;P1;durP2;ratioP2;P2;SDS_P1;SDS_P2;PMS_P1;PMS_P2;Temp;Humidity;BMP_temperature;BMP_pressure;BME280_temperature;BME280_humidity;BME280_pressure;Samples;Min_cycle;Max_cycle;Signal;HPM_P1;HPM_P2
2021/03/10 00:02:07;;;;;;;;;;;8.30;71.70;;;;;;5089977;28;19910;-58
2021/03/10 00:04:33;;;;;;;;;;;8.30;71.50;;;;;;5112144;28;19947;-58
2021/03/10 00:06:58;;;;;;;;;;;8.30;71.60;;;;;;5096467;28;19912;-57
2021/03/10 00:09:24;;;;;;;;;;;8.30;71.50;;;;;;5114393;27;20282;-57
2021/03/10 00:11:49;;;;;;;;;;;8.20;71.40;;;;;;5094991;28;21043;-58
2021/03/10 00:14:14;;;;;;;;;;;8.30;71.50;;;;;;5113168;27;19908;-57
2021/03/10 00:16:40;;;;;;;;;;;8.30;71.60;;;;;;5094208;28;19912;-57
2021/03/10 00:19:05;;;;;;;;;;;8.30;71.70;;;;;;5114210;27;19915;-57
2021/03/10 00:21:31;;;;;;;;;;;8.20;71.80;;;;;;5113742;27;19908;-57
2021/03/10 00:23:56;;;;;;;;;;;8.20;71.80;;;;;;5095973;28;20379;-57
2021/03/10 00:26:22;;;;;;;;;;;8.30;71.80;;;;;;5112273;28;19918;-58
2021/03/10 00:28:47;;;;;;;;;;;8.20;71.90;;;;;;5093185;28;19912;-56
2021/03/10 00:31:12;;;;;;;;;;;8.30;72.00;;;;;;5112560;28;19919;-57
2021/03/10 00:33:38;;;;;;;;;;;8.20;72.00;;;;;;5114058;27;19923;-57
2021/03/10 00:36:03;;;;;;;;;;;8.20;72.20;;;;;;5113767;27;20381;-59
2021/03/10 00:38:29;;;;;;;;;;;8.20;72.40;;;;;;5094222;28;19924;-56
2021/03/10 00:40:54;;;;;;;;;;;8.20;72.40;;;;;;5092672;28;19912;-56
2021/03/10 00:43:20;;;;;;;;;;;8.20;72.50;;;;;;5112502;27;20448;-57
2021/03/10 00:45:45;;;;;;;;;;;8.10;72.30;;;;;;5113273;27;19912;-57
2021/03/10 00:48:11;;;;;;;;;;;8.20;72.20;;;;;;5113912;27;19908;-58
2021/03/10 00:50:36;;;;;;;;;;;8.10;72.40;;;;;;5110265;28;20100;-58
2021/03/10 00:53:02;;;;;;;;;;;8.10;72.30;;;;;;5111872;27;20441;-59
2021/03/10 00:55:27;;;;;;;;;;;8.10;72.40;;;;;;5113362;27;20004;-59
2021/03/10 00:57:52;;;;;;;;;;;8.10;72.50;;;;;;5113578;27;19915;-57
2021/03/10 01:00:19;;;;;;;;;;;8.00;73.10;;;;;;5093628;28;20299;-57
2021/03/10 01:02:44;;;;;;;;;;;8.10;73.10;;;;;;5095272;27;19908;-57
2021/03/10 01:05:10;;;;;;;;;;;8.00;72.90;;;;;;5092034;28;19911;-56
2021/03/10 01:07:35;;;;;;;;;;;8.00;72.90;;;;;;5094894;27;20015;-57
2021/03/10 01:10:02;;;;;;;;;;;8.00;73.10;;;;;;5112027;28;20204;-57
2021/03/10 01:12:28;;;;;;;;;;;8.00;73.20;;;;;;5095564;28;19920;-59
2021/03/10 01:14:53;;;;;;;;;;;8.00;73.20;;;;;;5112121;27;19915;-57
2021/03/10 01:17:19;;;;;;;;;;;7.90;73.30;;;;;;5113115;27;23284;-58
2021/03/10 01:19:44;;;;;;;;;;;7.90;73.40;;;;;;5092713;28;20003;-59
2021/03/10 01:22:10;;;;;;;;;;;7.90;73.40;;;;;;5094839;27;19912;-57
2021/03/10 01:24:35;;;;;;;;;;;7.90;73.50;;;;;;5111703;28;20264;-59
2021/03/10 01:27:01;;;;;;;;;;;7.90;73.60;;;;;;5094864;28;19923;-56
2021/03/10 01:29:26;;;;;;;;;;;7.80;73.60;;;;;;5110473;28;19908;-57
2021/03/10 01:31:52;;;;;;;;;;;7.90;73.90;;;;;;5093204;28;19911;-59
2021/03/10 01:34:17;;;;;;;;;;;7.80;73.90;;;;;;5111689;28;19958;-59
2021/03/10 01:36:42;;;;;;;;;;;7.80;74.00;;;;;;5112497;27;19915;-57
2021/03/10 01:39:08;;;;;;;;;;;7.80;73.90;;;;;;5112910;27;19915;-56
2021/03/10 01:41:33;;;;;;;;;;;7.80;74.10;;;;;;5112608;27;19911;-58
2021/03/10 01:43:59;;;;;;;;;;;7.70;74.20;;;;;;5091414;28;19914;-58
2021/03/10 01:46:24;;;;;;;;;;;7.70;74.10;;;;;;5093949;27;19907;-57
2021/03/10 01:48:50;;;;;;;;;;;7.70;74.20;;;;;;5092421;28;19911;-56
2021/03/10 01:51:15;;;;;;;;;;;7.70;74.40;;;;;;5089916;28;19928;-58
2021/03/10 01:53:41;;;;;;;;;;;7.70;74.50;;;;;;5112806;27;19915;-58
2021/03/10 01:56:06;;;;;;;;;;;7.60;74.60;;;;;;5104502;28;19904;-56
2021/03/10 01:58:32;;;;;;;;;;;7.60;74.70;;;;;;5112683;27;19911;-56
2021/03/10 02:00:57;;;;;;;;;;;7.60;74.90;;;;;;5087476;28;19931;-58
2021/03/10 02:03:23;;;;;;;;;;;7.60;75.00;;;;;;5094529;28;19915;-59
2021/03/10 02:05:48;;;;;;;;;;;7.60;75.00;;;;;;5110801;28;19939;-57
2021/03/10 02:08:23;;;;;;;;;;;7.50;75.00;;;;;;5092729;28;20321;-56
2021/03/10 02:10:54;;;;;;;;;;;7.50;75.00;;;;;;5106040;28;20010;-58
2021/03/10 02:13:32;;;;;;;;;;;7.50;75.10;;;;;;5094005;28;20282;-57
2021/03/10 02:16:01;;;;;;;;;;;7.50;75.20;;;;;;5111426;27;19908;-58
2021/03/10 02:18:33;;;;;;;;;;;7.50;75.40;;;;;;5093801;28;20006;-59
2021/03/10 02:20:59;;;;;;;;;;;7.50;75.30;;;;;;5109308;28;19932;-57
2021/03/10 02:23:43;;;;;;;;;;;7.40;75.20;;;;;;5093168;28;19919;-57
2021/03/10 02:26:27;;;;;;;;;;;7.40;75.40;;;;;;5111457;28;19911;-57
2021/03/10 02:28:53;;;;;;;;;;;7.40;75.40;;;;;;5110972;27;20002;-58
2021/03/10 02:31:19;;;;;;;;;;;7.40;75.60;;;;;;5091852;28;20362;-56
2021/03/10 02:33:44;;;;;;;;;;;7.40;75.50;;;;;;5092469;28;20318;-57
2021/03/10 02:36:10;;;;;;;;;;;7.40;75.40;;;;;;5092914;27;19959;-59
2021/03/10 02:38:38;;;;;;;;;;;7.40;75.50;;;;;;5091892;28;20014;-58
2021/03/10 02:41:03;;;;;;;;;;;7.40;75.60;;;;;;5111770;27;20263;-58
2021/03/10 02:43:29;;;;;;;;;;;7.40;75.50;;;;;;5093678;28;19907;-57
2021/03/10 02:45:54;;;;;;;;;;;7.30;75.70;;;;;;5110054;27;19988;-57
2021/03/10 02:48:21;;;;;;;;;;;7.30;75.60;;;;;;5090974;28;20006;-59
2021/03/10 02:50:46;;;;;;;;;;;7.30;75.80;;;;;;5107785;28;19924;-56
2021/03/10 02:53:12;;;;;;;;;;;7.30;75.90;;;;;;5091835;28;19919;-59
2021/03/10 02:55:38;;;;;;;;;;;7.30;76.00;;;;;;5093773;28;19941;-58
2021/03/10 02:58:03;;;;;;;;;;;7.30;76.00;;;;;;5096014;28;20374;-57
2021/03/10 03:00:29;;;;;;;;;;;7.20;76.00;;;;;;5090030;28;19912;-56
2021/03/10 03:02:54;;;;;;;;;;;7.20;76.10;;;;;;5110139;28;20424;-58
2021/03/10 03:05:20;;;;;;;;;;;7.20;76.20;;;;;;5074532;28;19915;-56
2021/03/10 03:07:45;;;;;;;;;;;7.20;76.20;;;;;;5093262;28;19960;-57
2021/03/10 03:10:13;;;;;;;;;;;7.20;76.20;;;;;;5110845;27;20255;-58
2021/03/10 03:12:39;;;;;;;;;;;7.20;76.30;;;;;;5110720;28;19912;-57
2021/03/10 03:15:05;;;;;;;;;;;7.20;76.40;;;;;;5091400;28;19911;-58
2021/03/10 03:17:30;;;;;;;;;;;7.10;76.40;;;;;;5091274;28;19914;-58
2021/03/10 03:19:56;;;;;;;;;;;7.10;76.50;;;;;;5092724;28;19960;-59
2021/03/10 03:22:21;;;;;;;;;;;7.10;76.40;;;;;;5112006;28;19908;-58
2021/03/10 03:24:47;;;;;;;;;;;7.10;76.50;;;;;;5089510;28;19950;-59
2021/03/10 03:27:12;;;;;;;;;;;7.10;76.50;;;;;;5091731;28;19911;-57
2021/03/10 03:29:38;;;;;;;;;;;7.10;76.60;;;;;;5091033;28;20366;-57
2021/03/10 03:32:03;;;;;;;;;;;7.10;76.80;;;;;;5091529;28;19916;-56
2021/03/10 03:34:29;;;;;;;;;;;7.10;76.70;;;;;;5074724;28;19916;-57
2021/03/10 03:36:54;;;;;;;;;;;7.10;77.30;;;;;;5109329;28;19915;-57
2021/03/10 03:39:19;;;;;;;;;;;7.00;76.70;;;;;;5094908;28;19908;-58
2021/03/10 03:41:46;;;;;;;;;;;7.10;76.80;;;;;;5096605;28;19908;-58
2021/03/10 03:44:12;;;;;;;;;;;7.10;76.90;;;;;;5095578;28;19904;-56
2021/03/10 03:46:37;;;;;;;;;;;7.00;76.90;;;;;;5114370;27;19915;-57
2021/03/10 03:49:03;;;;;;;;;;;7.00;76.80;;;;;;5093756;28;19912;-57
2021/03/10 03:51:29;;;;;;;;;;;7.00;77.00;;;;;;5112969;27;19919;-57
2021/03/10 03:53:55;;;;;;;;;;;7.00;77.00;;;;;;5114696;27;19914;-56
2021/03/10 03:56:20;;;;;;;;;;;7.00;77.10;;;;;;5096366;28;19908;-59
2021/03/10 03:58:46;;;;;;;;;;;7.00;77.20;;;;;;5095308;28;19969;-57
2021/03/10 04:01:11;;;;;;;;;;;7.00;77.10;;;;;;5112872;28;19908;-58
2021/03/10 04:03:37;;;;;;;;;;;7.00;77.10;;;;;;5094068;28;20417;-56
2021/03/10 04:06:02;;;;;;;;;;;7.00;77.10;;;;;;5114341;27;19973;-57
2021/03/10 04:08:27;;;;;;;;;;;7.00;77.10;;;;;;5115308;27;19914;-56
2021/03/10 04:10:53;;;;;;;;;;;7.00;77.30;;;;;;5117944;27;19920;-56
2021/03/10 04:13:18;;;;;;;;;;;7.00;77.30;;;;;;5115752;27;19934;-57
2021/03/10 04:15:44;;;;;;;;;;;6.90;77.30;;;;;;5115998;27;20348;-57
2021/03/10 04:18:09;;;;;;;;;;;6.90;77.30;;;;;;5115371;27;19904;-57
2021/03/10 04:20:35;;;;;;;;;;;6.90;77.30;;;;;;5117325;27;20240;-56
2021/03/10 04:23:00;;;;;;;;;;;7.00;77.40;;;;;;5114817;27;19907;-58
2021/03/10 04:25:26;;;;;;;;;;;6.90;77.40;;;;;;5112914;28;20418;-58
2021/03/10 04:27:51;;;;;;;;;;;6.90;77.30;;;;;;5111288;28;19961;-58
2021/03/10 04:30:17;;;;;;;;;;;6.90;77.40;;;;;;5112384;28;19915;-56
2021/03/10 04:32:42;;;;;;;;;;;6.90;77.40;;;;;;5115649;27;19951;-57
2021/03/10 04:35:08;;;;;;;;;;;6.90;77.40;;;;;;5118397;27;20328;-59
2021/03/10 04:37:33;;;;;;;;;;;6.90;77.40;;;;;;5094394;28;20023;-59
2021/03/10 04:39:59;;;;;;;;;;;6.90;77.40;;;;;;5114052;27;19912;-58
2021/03/10 04:42:24;;;;;;;;;;;6.90;77.50;;;;;;5115443;27;19918;-58
2021/03/10 04:44:50;;;;;;;;;;;6.90;77.50;;;;;;5114444;27;19957;-57
2021/03/10 04:47:15;;;;;;;;;;;6.90;77.50;;;;;;5115942;27;20366;-56
2021/03/10 04:49:41;;;;;;;;;;;6.90;77.50;;;;;;5090411;28;19967;-58
2021/03/10 04:52:06;;;;;;;;;;;6.80;77.50;;;;;;5096474;28;19919;-57
2021/03/10 04:54:32;;;;;;;;;;;6.80;77.50;;;;;;5115102;27;19958;-59
2021/03/10 04:56:57;;;;;;;;;;;6.80;77.50;;;;;;5094241;28;20359;-59
2021/03/10 04:59:22;;;;;;;;;;;6.80;77.60;;;;;;5097581;27;19979;-58
2021/03/10 05:01:48;;;;;;;;;;;6.80;77.60;;;;;;5112358;28;19918;-59
2021/03/10 05:04:13;;;;;;;;;;;6.80;77.70;;;;;;5115633;27;19911;-56
2021/03/10 05:06:39;;;;;;;;;;;6.80;77.60;;;;;;5092248;28;20290;-57
2021/03/10 05:09:05;;;;;;;;;;;6.80;77.60;;;;;;5115138;27;19908;-59
2021/03/10 05:11:30;;;;;;;;;;;6.80;77.60;;;;;;5114499;27;19925;-56
2021/03/10 05:13:55;;;;;;;;;;;6.80;77.70;;;;;;5093888;28;19912;-56
2021/03/10 05:16:21;;;;;;;;;;;6.80;77.80;;;;;;5114434;27;19914;-58
2021/03/10 05:18:46;;;;;;;;;;;6.80;77.80;;;;;;5112603;27;19912;-57
2021/03/10 05:21:12;;;;;;;;;;;6.80;77.80;;;;;;5093407;28;20279;-58
2021/03/10 05:23:41;;;;;;;;;;;6.80;77.70;;;;;;5114438;27;19925;-57
2021/03/10 05:26:06;;;;;;;;;;;6.80;77.80;;;;;;5096793;28;19907;-58
2021/03/10 05:28:32;;;;;;;;;;;6.80;77.80;;;;;;5110736;28;20006;-57
2021/03/10 05:30:57;;;;;;;;;;;6.80;77.80;;;;;;5109993;28;19912;-57
2021/03/10 05:33:23;;;;;;;;;;;6.80;78.00;;;;;;5114421;27;19968;-58
2021/03/10 05:35:48;;;;;;;;;;;6.80;78.00;;;;;;5114699;27;19939;-57
2021/03/10 05:38:14;;;;;;;;;;;6.70;77.90;;;;;;5114354;27;19919;-58
2021/03/10 05:40:39;;;;;;;;;;;6.70;77.70;;;;;;5111007;28;19920;-56
2021/03/10 05:43:05;;;;;;;;;;;6.80;78.00;;;;;;5095295;28;19907;-58
2021/03/10 05:45:30;;;;;;;;;;;6.70;78.00;;;;;;5078594;28;19912;-57
2021/03/10 05:47:55;;;;;;;;;;;6.70;78.00;;;;;;5093230;28;19915;-57
2021/03/10 05:50:21;;;;;;;;;;;6.70;78.00;;;;;;5090327;28;19947;-58
2021/03/10 05:52:47;;;;;;;;;;;6.70;78.10;;;;;;5116112;27;19919;-57
2021/03/10 05:55:13;;;;;;;;;;;6.70;78.20;;;;;;5115576;27;19915;-57
2021/03/10 05:57:39;;;;;;;;;;;6.70;78.20;;;;;;5091449;28;19912;-56
2021/03/10 06:00:11;;;;;;;;;;;6.70;78.30;;;;;;5115883;27;20013;-57
2021/03/10 06:02:36;;;;;;;;;;;6.70;78.30;;;;;;5092048;28;20438;-57
2021/03/10 06:05:02;;;;;;;;;;;6.70;78.40;;;;;;5097284;28;20041;-56
2021/03/10 06:07:27;;;;;;;;;;;6.70;78.40;;;;;;5115310;27;19907;-56
2021/03/10 06:09:54;;;;;;;;;;;6.70;78.50;;;;;;5113792;27;19907;-57
2021/03/10 06:12:19;;;;;;;;;;;6.60;78.50;;;;;;5111237;27;20252;-59
2021/03/10 06:14:44;;;;;;;;;;;6.60;78.50;;;;;;5110970;28;19914;-59
2021/03/10 06:17:10;;;;;;;;;;;6.60;78.60;;;;;;5115928;27;19908;-57
2021/03/10 06:19:42;;;;;;;;;;;6.60;78.60;;;;;;5110319;28;19908;-56
2021/03/10 06:22:07;;;;;;;;;;;6.60;78.60;;;;;;5105039;28;19940;-56
2021/03/10 06:24:33;;;;;;;;;;;6.60;78.80;;;;;;5079092;28;19908;-57
2021/03/10 06:26:58;;;;;;;;;;;6.60;78.80;;;;;;5092865;28;19915;-56
2021/03/10 06:29:24;;;;;;;;;;;6.60;78.80;;;;;;5091605;28;19919;-58
2021/03/10 06:31:59;;;;;;;;;;;6.60;78.80;;;;;;5093556;28;19915;-58
2021/03/10 06:34:24;;;;;;;;;;;6.60;78.80;;;;;;5091295;28;20371;-59
2021/03/10 06:36:50;;;;;;;;;;;6.50;78.80;;;;;;5090561;28;19908;-58
2021/03/10 06:39:23;;;;;;;;;;;6.60;78.90;;;;;;5114641;27;20259;-56
2021/03/10 06:41:48;;;;;;;;;;;6.60;78.80;;;;;;5074349;28;19915;-58
2021/03/10 06:44:14;;;;;;;;;;;6.60;78.70;;;;;;5095824;28;19911;-59
2021/03/10 06:46:52;;;;;;;;;;;6.60;78.80;;;;;;5113698;27;19926;-58
2021/03/10 06:49:18;;;;;;;;;;;6.60;78.80;;;;;;5092176;28;19951;-56
2021/03/10 06:51:54;;;;;;;;;;;6.60;78.90;;;;;;5097066;28;19950;-58
2021/03/10 06:54:19;;;;;;;;;;;6.60;78.90;;;;;;5115604;27;20278;-58
2021/03/10 06:56:45;;;;;;;;;;;6.50;78.90;;;;;;5110027;28;20006;-58
2021/03/10 06:59:10;;;;;;;;;;;6.60;78.90;;;;;;5115151;27;19912;-58
2021/03/10 07:01:39;;;;;;;;;;;6.60;78.80;;;;;;5095681;28;19912;-58
2021/03/10 07:04:05;;;;;;;;;;;6.60;78.90;;;;;;5086174;28;19943;-58
2021/03/10 07:06:32;;;;;;;;;;;6.60;78.90;;;;;;5115886;27;20363;-58
2021/03/10 07:08:57;;;;;;;;;;;6.60;78.90;;;;;;5116507;27;19908;-59
2021/03/10 07:11:23;;;;;;;;;;;6.60;78.80;;;;;;5109789;28;19934;-56
2021/03/10 07:13:49;;;;;;;;;;;6.60;78.90;;;;;;5095512;28;19951;-56
2021/03/10 07:16:14;;;;;;;;;;;6.60;78.80;;;;;;5097262;28;19915;-58
2021/03/10 07:18:40;;;;;;;;;;;6.60;78.90;;;;;;5090980;28;19956;-59
2021/03/10 07:21:06;;;;;;;;;;;6.60;78.90;;;;;;5096689;28;19904;-57
2021/03/10 07:23:31;;;;;;;;;;;6.60;78.70;;;;;;5097220;28;20430;-56
2021/03/10 07:25:59;;;;;;;;;;;6.60;78.80;;;;;;5102565;28;19961;-59
2021/03/10 07:28:27;;;;;;;;;;;6.60;78.80;;;;;;5093479;28;19912;-56
2021/03/10 07:30:52;;;;;;;;;;;6.60;78.90;;;;;;5110190;28;19916;-57
2021/03/10 07:33:18;;;;;;;;;;;6.60;78.90;;;;;;5097095;28;19960;-59
2021/03/10 07:35:47;;;;;;;;;;;6.60;78.80;;;;;;5114836;28;20390;-58
2021/03/10 07:38:12;;;;;;;;;;;6.60;79.00;;;;;;5108406;28;19946;-58
2021/03/10 07:40:38;;;;;;;;;;;6.60;79.10;;;;;;5090487;28;20376;-56
2021/03/10 07:43:03;;;;;;;;;;;6.60;79.00;;;;;;5095788;28;19908;-56
2021/03/10 07:45:40;;;;;;;;;;;6.60;79.00;;;;;;5071839;28;19916;-59
2021/03/10 07:48:06;;;;;;;;;;;6.60;79.10;;;;;;5083995;28;20014;-60
2021/03/10 07:50:38;;;;;;;;;;;6.60;79.00;;;;;;5102225;28;19916;-57
2021/03/10 07:53:03;;;;;;;;;;;6.60;79.70;;;;;;5086250;28;19912;-59
2021/03/10 07:55:29;;;;;;;;;;;6.60;79.10;;;;;;5108886;28;19908;-59
2021/03/10 07:57:54;;;;;;;;;;;6.70;79.00;;;;;;5091402;28;19923;-59
2021/03/10 08:00:20;;;;;;;;;;;6.70;79.00;;;;;;5108963;28;20366;-56
2021/03/10 08:02:47;;;;;;;;;;;6.70;78.80;;;;;;5070717;28;20383;-59
2021/03/10 08:05:19;;;;;;;;;;;6.70;78.70;;;;;;5088944;28;19912;-56
2021/03/10 08:07:45;;;;;;;;;;;6.70;78.80;;;;;;5108506;28;20025;-58
2021/03/10 08:10:10;;;;;;;;;;;6.70;78.70;;;;;;5108605;28;20374;-59
2021/03/10 08:12:36;;;;;;;;;;;6.70;78.80;;;;;;5110852;28;19965;-58
2021/03/10 08:15:02;;;;;;;;;;;6.70;79.10;;;;;;5087075;28;19998;-57
2021/03/10 08:17:28;;;;;;;;;;;6.70;79.30;;;;;;5087458;28;20358;-57
2021/03/10 08:20:00;;;;;;;;;;;6.70;79.30;;;;;;5118558;28;19951;-56
2021/03/10 08:22:26;;;;;;;;;;;6.70;79.20;;;;;;5093340;28;20178;-57
2021/03/10 08:24:52;;;;;;;;;;;6.70;79.20;;;;;;5099546;28;19915;-58
2021/03/10 08:27:17;;;;;;;;;;;6.80;79.20;;;;;;5094265;28;19912;-58
2021/03/10 08:29:46;;;;;;;;;;;6.80;79.30;;;;;;5106558;28;19911;-58
2021/03/10 08:32:12;;;;;;;;;;;6.80;79.30;;;;;;5097219;28;19919;-57
2021/03/10 08:34:38;;;;;;;;;;;6.80;79.30;;;;;;5090042;28;19993;-56
2021/03/10 08:37:04;;;;;;;;;;;6.80;79.30;;;;;;5109774;28;20410;-57
2021/03/10 08:39:30;;;;;;;;;;;6.80;79.40;;;;;;5094029;28;20016;-56
2021/03/10 08:41:55;;;;;;;;;;;6.80;79.40;;;;;;5089644;28;19916;-56
2021/03/10 08:44:23;;;;;;;;;;;6.80;79.30;;;;;;5089650;28;21437;-57
2021/03/10 08:46:50;;;;;;;;;;;6.90;79.40;;;;;;5090974;28;19912;-59
2021/03/10 08:49:26;;;;;;;;;;;6.90;79.30;;;;;;5091728;28;19947;-58
2021/03/10 08:52:21;;;;;;;;;;;6.90;79.30;;;;;;5093865;28;19934;-58
2021/03/10 08:54:47;;;;;;;;;;;6.90;79.50;;;;;;5071993;28;19915;-58
2021/03/10 08:57:12;;;;;;;;;;;6.90;79.70;;;;;;5111068;28;19919;-58
2021/03/10 08:59:38;;;;;;;;;;;6.90;79.60;;;;;;5106540;28;19916;-59
2021/03/10 09:02:03;;;;;;;;;;;6.90;79.70;;;;;;5111895;28;19977;-56
2021/03/10 09:04:29;;;;;;;;;;;6.90;79.70;;;;;;5093866;28;19912;-57
2021/03/10 09:06:58;;;;;;;;;;;7.00;79.90;;;;;;5092203;28;19946;-57
2021/03/10 09:09:23;;;;;;;;;;;7.00;80.00;;;;;;5086521;28;19927;-56
2021/03/10 09:11:50;;;;;;;;;;;7.00;80.00;;;;;;5110105;28;20334;-59
2021/03/10 09:14:15;;;;;;;;;;;7.00;80.30;;;;;;5092346;28;19915;-56
2021/03/10 09:16:57;;;;;;;;;;;7.00;80.10;;;;;;5093276;28;19957;-58
2021/03/10 09:19:28;;;;;;;;;;;7.00;80.00;;;;;;5111375;28;19951;-57
2021/03/10 09:22:03;;;;;;;;;;;7.00;80.00;;;;;;5092419;28;19912;-58
2021/03/10 09:24:29;;;;;;;;;;;7.10;80.10;;;;;;5104076;28;19916;-58
2021/03/10 09:26:55;;;;;;;;;;;7.10;80.30;;;;;;5098889;28;19968;-56
2021/03/10 09:29:20;;;;;;;;;;;7.00;80.40;;;;;;5093345;28;19973;-58
2021/03/10 09:31:55;;;;;;;;;;;7.10;80.50;;;;;;5107826;28;19912;-58
2021/03/10 09:34:20;;;;;;;;;;;7.10;80.50;;;;;;5065602;28;19919;-58
2021/03/10 09:36:46;;;;;;;;;;;7.10;81.00;;;;;;5102080;28;19919;-56
2021/03/10 09:39:13;;;;;;;;;;;7.10;80.80;;;;;;5089687;28;19923;-57
2021/03/10 09:41:39;;;;;;;;;;;7.10;81.10;;;;;;5109229;27;19911;-57
2021/03/10 09:44:08;;;;;;;;;;;7.10;81.00;;;;;;5098338;28;19914;-58
2021/03/10 09:46:40;;;;;;;;;;;7.10;81.00;;;;;;5090125;28;20294;-57
2021/03/10 09:49:06;;;;;;;;;;;7.10;80.90;;;;;;5088929;28;19926;-57
2021/03/10 09:51:31;;;;;;;;;;;7.20;81.00;;;;;;5110088;28;19912;-58
2021/03/10 09:53:57;;;;;;;;;;;7.20;81.00;;;;;;5097131;28;19915;-59
2021/03/10 09:56:24;;;;;;;;;;;7.20;80.90;;;;;;5110459;28;19907;-58
2021/03/10 09:58:50;;;;;;;;;;;7.30;80.90;;;;;;5110414;28;19954;-59
2021/03/10 10:01:15;;;;;;;;;;;7.30;80.90;;;;;;5092125;28;19914;-59
2021/03/10 10:03:41;;;;;;;;;;;7.30;80.90;;;;;;5109318;28;19908;-56
2021/03/10 10:06:06;;;;;;;;;;;7.30;80.80;;;;;;5111057;28;19964;-57
2021/03/10 10:08:34;;;;;;;;;;;7.30;80.60;;;;;;5076221;28;19912;-57
2021/03/10 10:11:00;;;;;;;;;;;7.30;80.40;;;;;;5092765;28;19918;-56
2021/03/10 10:13:25;;;;;;;;;;;7.40;80.40;;;;;;5110986;28;20369;-56
2021/03/10 10:15:51;;;;;;;;;;;7.40;80.30;;;;;;5083641;28;19911;-56
2021/03/10 10:18:16;;;;;;;;;;;7.40;80.10;;;;;;5115998;27;19919;-58
2021/03/10 10:20:42;;;;;;;;;;;7.40;79.90;;;;;;5111717;27;19918;-55
2021/03/10 10:23:07;;;;;;;;;;;7.40;79.90;;;;;;5099638;28;19912;-57
2021/03/10 10:25:33;;;;;;;;;;;7.40;79.90;;;;;;5117234;27;19916;-57
2021/03/10 10:27:58;;;;;;;;;;;7.40;79.80;;;;;;5096403;27;20010;-57
2021/03/10 10:30:23;;;;;;;;;;;7.50;79.80;;;;;;5086222;28;20018;-57
2021/03/10 10:32:49;;;;;;;;;;;7.50;79.70;;;;;;5099973;28;19908;-56
2021/03/10 10:35:15;;;;;;;;;;;7.50;79.60;;;;;;5117632;27;20039;-59
2021/03/10 10:37:40;;;;;;;;;;;7.60;79.60;;;;;;5106464;28;19920;-58
2021/03/10 10:40:06;;;;;;;;;;;7.60;79.40;;;;;;5091483;28;19984;-59
2021/03/10 10:42:32;;;;;;;;;;;7.60;79.30;;;;;;5112232;27;19907;-57
2021/03/10 10:44:57;;;;;;;;;;;7.60;79.20;;;;;;5098075;28;20340;-56
2021/03/10 10:47:23;;;;;;;;;;;7.60;79.00;;;;;;5092185;27;19914;-59
2021/03/10 10:49:49;;;;;;;;;;;7.70;79.00;;;;;;5085199;28;19976;-57
2021/03/10 10:52:14;;;;;;;;;;;7.70;78.90;;;;;;5118065;27;19921;-58
2021/03/10 10:54:40;;;;;;;;;;;7.80;78.90;;;;;;5117696;27;19956;-58
2021/03/10 10:57:05;;;;;;;;;;;7.70;78.80;;;;;;5091581;28;19908;-57
2021/03/10 10:59:31;;;;;;;;;;;7.80;78.80;;;;;;5118447;27;19908;-59
2021/03/10 11:01:56;;;;;;;;;;;7.80;78.60;;;;;;5115604;27;19911;-56
2021/03/10 11:04:22;;;;;;;;;;;7.80;78.60;;;;;;5112920;27;19912;-56
2021/03/10 11:06:48;;;;;;;;;;;7.90;78.50;;;;;;5095041;27;19911;-58
2021/03/10 11:09:13;;;;;;;;;;;7.90;78.50;;;;;;5113776;27;19969;-56
2021/03/10 11:11:39;;;;;;;;;;;7.90;78.40;;;;;;5103336;28;20007;-59
2021/03/10 11:14:05;;;;;;;;;;;7.90;78.10;;;;;;5105981;28;19926;-58
2021/03/10 11:16:30;;;;;;;;;;;8.00;78.10;;;;;;5080489;28;19912;-56
2021/03/10 11:18:56;;;;;;;;;;;8.00;77.90;;;;;;5103940;28;19977;-58
2021/03/10 11:21:22;;;;;;;;;;;8.00;77.50;;;;;;5107064;28;19922;-57
2021/03/10 11:23:47;;;;;;;;;;;8.00;77.30;;;;;;5115771;27;19916;-57
2021/03/10 11:26:13;;;;;;;;;;;8.10;77.40;;;;;;5113880;28;19912;-58
2021/03/10 11:28:38;;;;;;;;;;;8.10;77.10;;;;;;5108584;28;19916;-59
2021/03/10 11:31:03;;;;;;;;;;;8.10;76.80;;;;;;5080038;28;19951;-57
2021/03/10 11:33:29;;;;;;;;;;;8.10;76.60;;;;;;5107862;28;19922;-59
2021/03/10 11:35:54;;;;;;;;;;;8.20;76.60;;;;;;5085523;28;20401;-59
2021/03/10 11:38:20;;;;;;;;;;;8.20;76.30;;;;;;5102944;28;19979;-56
2021/03/10 11:40:45;;;;;;;;;;;8.20;76.00;;;;;;5107343;28;19911;-58
2021/03/10 11:43:13;;;;;;;;;;;8.30;76.10;;;;;;5102837;28;20440;-58
2021/03/10 11:45:38;;;;;;;;;;;8.30;75.80;;;;;;5107959;28;19935;-58
2021/03/10 11:48:04;;;;;;;;;;;8.30;75.60;;;;;;5089250;28;20354;-58
2021/03/10 11:50:29;;;;;;;;;;;8.30;75.10;;;;;;5106921;28;19961;-58
2021/03/10 11:52:55;;;;;;;;;;;8.40;75.60;;;;;;5088408;28;19923;-57
2021/03/10 11:55:20;;;;;;;;;;;8.40;75.30;;;;;;5112662;28;19938;-56
2021/03/10 11:57:46;;;;;;;;;;;8.50;75.40;;;;;;5108456;28;19924;-58
2021/03/10 12:00:12;;;;;;;;;;;8.50;75.30;;;;;;5120723;27;19911;-56
2021/03/10 12:02:37;;;;;;;;;;;8.50;75.40;;;;;;5120150;27;19916;-59
2021/03/10 12:05:03;;;;;;;;;;;8.50;75.50;;;;;;5107890;27;19959;-57
2021/03/10 12:07:28;;;;;;;;;;;8.50;75.40;;;;;;5091076;28;19920;-60
2021/03/10 12:09:54;;;;;;;;;;;8.50;75.30;;;;;;5109191;27;19916;-59
2021/03/10 12:12:19;;;;;;;;;;;8.60;75.30;;;;;;5086782;28;19922;-57
2021/03/10 12:14:45;;;;;;;;;;;8.60;75.20;;;;;;5113106;27;19927;-58
2021/03/10 12:17:11;;;;;;;;;;;8.60;75.10;;;;;;5092477;28;19951;-57
2021/03/10 12:19:38;;;;;;;;;;;8.70;75.30;;;;;;5098533;28;19919;-59
2021/03/10 12:22:04;;;;;;;;;;;8.70;75.10;;;;;;5108781;27;20301;-57
2021/03/10 12:24:29;;;;;;;;;;;8.70;74.70;;;;;;5091410;28;19995;-57
2021/03/10 12:26:55;;;;;;;;;;;8.80;74.90;;;;;;5108473;28;19922;-58
2021/03/10 12:29:20;;;;;;;;;;;8.80;74.90;;;;;;5103252;28;20394;-58
2021/03/10 12:31:46;;;;;;;;;;;8.80;74.80;;;;;;5076773;28;19920;-58
2021/03/10 12:34:11;;;;;;;;;;;8.90;74.40;;;;;;5103369;27;19915;-58
2021/03/10 12:36:36;;;;;;;;;;;8.90;73.90;;;;;;5109177;28;20071;-55
2021/03/10 12:39:03;;;;;;;;;;;8.90;74.10;;;;;;5093662;27;19920;-58
2021/03/10 12:41:28;;;;;;;;;;;9.00;73.90;;;;;;5087290;28;19916;-59
2021/03/10 12:43:54;;;;;;;;;;;9.00;73.40;;;;;;5121182;27;20396;-58
2021/03/10 12:46:19;;;;;;;;;;;9.10;72.70;;;;;;5092337;28;19919;-56
2021/03/10 12:48:44;;;;;;;;;;;9.20;72.50;;;;;;5104363;28;20052;-58
2021/03/10 12:51:10;;;;;;;;;;;9.10;72.60;;;;;;5106725;28;20505;-58
2021/03/10 12:53:36;;;;;;;;;;;9.20;72.50;;;;;;5099044;27;19920;-59
2021/03/10 12:56:01;;;;;;;;;;;9.20;72.50;;;;;;5110842;28;20302;-58
2021/03/10 12:58:26;;;;;;;;;;;9.30;72.40;;;;;;5118541;27;19923;-57
2021/03/10 13:00:52;;;;;;;;;;;9.30;72.10;;;;;;5114049;27;19922;-59
2021/03/10 13:03:17;;;;;;;;;;;9.30;71.70;;;;;;5091815;28;19912;-59
2021/03/10 13:05:44;;;;;;;;;;;9.40;71.70;;;;;;5109374;28;20295;-57
2021/03/10 13:08:09;;;;;;;;;;;9.40;71.50;;;;;;5121353;27;20018;-57
2021/03/10 13:10:34;;;;;;;;;;;9.40;71.20;;;;;;5112812;27;19938;-56
2021/03/10 13:13:00;;;;;;;;;;;9.40;69.30;;;;;;5093054;28;19916;-59
2021/03/10 13:15:25;;;;;;;;;;;9.50;68.90;;;;;;5091383;28;20352;-56
2021/03/10 13:17:51;;;;;;;;;;;9.50;69.40;;;;;;5106584;28;19920;-56
2021/03/10 13:20:16;;;;;;;;;;;9.50;70.00;;;;;;5105625;28;19907;-58
2021/03/10 13:22:42;;;;;;;;;;;9.60;70.00;;;;;;5090956;28;19930;-57
2021/03/10 13:25:08;;;;;;;;;;;9.60;69.00;;;;;;5092601;28;19929;-56
2021/03/10 13:27:33;;;;;;;;;;;9.60;69.00;;;;;;5093450;28;19912;-56
2021/03/10 13:29:59;;;;;;;;;;;9.60;69.20;;;;;;5091128;28;19926;-56
2021/03/10 13:32:24;;;;;;;;;;;9.70;69.20;;;;;;5108656;27;19988;-57
2021/03/10 13:34:50;;;;;;;;;;;9.70;69.10;;;;;;5106475;28;20399;-57
2021/03/10 13:37:15;;;;;;;;;;;9.80;68.20;;;;;;5091147;28;19920;-59
2021/03/10 13:39:41;;;;;;;;;;;9.80;68.30;;;;;;5091391;28;19911;-59
2021/03/10 13:42:06;;;;;;;;;;;9.80;68.20;;;;;;5090199;28;20017;-57
2021/03/10 13:44:32;;;;;;;;;;;9.80;68.10;;;;;;5089466;28;20358;-58
2021/03/10 13:46:57;;;;;;;;;;;9.90;66.40;;;;;;5086356;28;19918;-60
2021/03/10 13:49:23;;;;;;;;;;;9.90;67.20;;;;;;5101450;28;19916;-57
2021/03/10 13:51:48;;;;;;;;;;;9.90;68.00;;;;;;5104232;28;19919;-58
2021/03/10 13:54:14;;;;;;;;;;;9.90;68.00;;;;;;5113387;27;19911;-58
2021/03/10 13:56:39;;;;;;;;;;;10.00;67.20;;;;;;5107033;27;19911;-57
2021/03/10 13:59:05;;;;;;;;;;;10.00;67.00;;;;;;5109454;27;20418;-57
2021/03/10 14:01:30;;;;;;;;;;;10.00;66.30;;;;;;5108405;27;19931;-57
2021/03/10 14:03:56;;;;;;;;;;;10.00;65.10;;;;;;5102222;28;19912;-57
2021/03/10 14:06:21;;;;;;;;;;;10.10;64.90;;;;;;5107898;27;20379;-58
2021/03/10 14:08:46;;;;;;;;;;;10.10;65.00;;;;;;5107535;27;19920;-56
2021/03/10 14:11:12;;;;;;;;;;;10.20;65.00;;;;;;5087547;28;19916;-59
2021/03/10 14:13:37;;;;;;;;;;;10.20;65.20;;;;;;5104085;28;19981;-58
2021/03/10 14:16:03;;;;;;;;;;;10.20;65.50;;;;;;5101992;27;19918;-57
2021/03/10 14:18:28;;;;;;;;;;;10.20;65.70;;;;;;5108105;27;20034;-58
2021/03/10 14:20:54;;;;;;;;;;;10.20;65.50;;;;;;5086243;28;19919;-60
2021/03/10 14:23:19;;;;;;;;;;;10.20;65.40;;;;;;5106889;27;19912;-59